sensor_id;sensor_type;location;lat;lon;timestamp;temperature;humidity
16871;DHT22;8552;48.120;-1.456;2023-09-19T00:01:34;13.00;99.90
16871;DHT22;8552;48.120;-1.456;2023-09-19T00:04:01;12.90;99.90
16871;DHT22;8552;48.120;-1.456;2023-09-19T00:06:30;12.90;99.90
16871;DHT22;8552;48.120;-1.456;2023-09-19T00:08:59;12.80;99.90
16871;DHT22;8552;48.120;-1.456;2023-09-19T00:11:25;12.80;99.90
16871;DHT22;8552;48.120;-1.456;2023-09-19T00:13:52;12.80;99.90
16871;DHT22;8552;48.120;-1.456;2023-09-19T00:16:18;12.80;99.90
16871;DHT22;8552;48.120;-1.456;2023-09-19T00:18:44;12.80;99.90
16871;DHT22;8552;48.120;-1.456;2023-09-19T00:21:10;12.70;99.90
16871;DHT22;8552;48.120;-1.456;2023-09-19T00:23:36;12.70;99.90
16871;DHT22;8552;48.120;-1.456;2023-09-19T00:26:02;12.70;99.90
16871;DHT22;8552;48.120;-1.456;2023-09-19T00:28:29;12.70;99.90
16871;DHT22;8552;48.120;-1.456;2023-09-19T00:30:55;12.70;99.90
16871;DHT22;8552;48.120;-1.456;2023-09-19T00:33:21;12.70;99.90
16871;DHT22;8552;48.120;-1.456;2023-09-19T00:35:51;12.70;99.90
16871;DHT22;8552;48.120;-1.456;2023-09-19T00:38:17;12.70;99.90
16871;DHT22;8552;48.120;-1.456;2023-09-19T00:40:47;12.60;99.90
16871;DHT22;8552;48.120;-1.456;2023-09-19T00:43:12;12.60;99.90
16871;DHT22;8552;48.120;-1.456;2023-09-19T00:45:39;12.60;99.90
16871;DHT22;8552;48.120;-1.456;2023-09-19T00:48:08;12.60;99.90
16871;DHT22;8552;48.120;-1.456;2023-09-19T00:50:35;12.70;99.90
16871;DHT22;8552;48.120;-1.456;2023-09-19T00:53:02;12.60;99.90
16871;DHT22;8552;48.120;-1.456;2023-09-19T00:55:34;12.60;99.90
16871;DHT22;8552;48.120;-1.456;2023-09-19T00:58:00;12.60;99.90
16871;DHT22;8552;48.120;-1.456;2023-09-19T01:00:27;12.60;99.90
16871;DHT22;8552;48.120;-1.456;2023-09-19T01:02:54;12.60;99.90
16871;DHT22;8552;48.120;-1.456;2023-09-19T01:05:19;12.70;99.90
16871;DHT22;8552;48.120;-1.456;2023-09-19T01:07:45;12.70;99.90
16871;DHT22;8552;48.120;-1.456;2023-09-19T01:10:15;12.70;99.90
16871;DHT22;8552;48.120;-1.456;2023-09-19T01:13:05;12.70;99.90
16871;DHT22;8552;48.120;-1.456;2023-09-19T01:21:23;12.70;99.90
16871;DHT22;8552;48.120;-1.456;2023-09-19T01:24:16;12.70;99.90
16871;DHT22;8552;48.120;-1.456;2023-09-19T01:29:50;12.70;99.90
16871;DHT22;8552;48.120;-1.456;2023-09-19T01:32:18;12.70;99.90
16871;DHT22;8552;48.120;-1.456;2023-09-19T01:37:17;12.60;99.90
16871;DHT22;8552;48.120;-1.456;2023-09-19T01:39:59;12.60;99.90
16871;DHT22;8552;48.120;-1.456;2023-09-19T01:45:59;12.70;99.90
16871;DHT22;8552;48.120;-1.456;2023-09-19T01:48:33;12.60;99.90
16871;DHT22;8552;48.120;-1.456;2023-09-19T01:51:09;12.60;99.90
16871;DHT22;8552;48.120;-1.456;2023-09-19T01:54:03;12.60;99.90
16871;DHT22;8552;48.120;-1.456;2023-09-19T01:56:51;12.60;99.90
16871;DHT22;8552;48.120;-1.456;2023-09-19T01:59:28;12.60;99.90
16871;DHT22;8552;48.120;-1.456;2023-09-19T02:01:57;12.60;99.90
16871;DHT22;8552;48.120;-1.456;2023-09-19T02:04:23;12.60;99.90
16871;DHT22;8552;48.120;-1.456;2023-09-19T02:06:49;12.60;99.90
16871;DHT22;8552;48.120;-1.456;2023-09-19T02:09:15;12.60;99.90
16871;DHT22;8552;48.120;-1.456;2023-09-19T02:11:41;12.60;99.90
16871;DHT22;8552;48.120;-1.456;2023-09-19T02:14:08;12.50;99.90
16871;DHT22;8552;48.120;-1.456;2023-09-19T02:16:34;12.60;99.90
16871;DHT22;8552;48.120;-1.456;2023-09-19T02:19:00;12.60;99.90
16871;DHT22;8552;48.120;-1.456;2023-09-19T02:21:26;12.60;99.90
16871;DHT22;8552;48.120;-1.456;2023-09-19T02:23:56;12.60;99.90
16871;DHT22;8552;48.120;-1.456;2023-09-19T02:26:21;12.60;99.90
16871;DHT22;8552;48.120;-1.456;2023-09-19T02:28:50;12.60;99.90
16871;DHT22;8552;48.120;-1.456;2023-09-19T02:31:16;12.60;99.90
16871;DHT22;8552;48.120;-1.456;2023-09-19T02:33:42;12.60;99.90
16871;DHT22;8552;48.120;-1.456;2023-09-19T02:36:08;12.60;99.90
16871;DHT22;8552;48.120;-1.456;2023-09-19T02:38:35;12.60;99.90
16871;DHT22;8552;48.120;-1.456;2023-09-19T02:41:00;12.60;99.90
16871;DHT22;8552;48.120;-1.456;2023-09-19T02:43:27;12.60;99.90
16871;DHT22;8552;48.120;-1.456;2023-09-19T02:45:53;12.60;99.90
16871;DHT22;8552;48.120;-1.456;2023-09-19T02:48:22;12.60;99.90
16871;DHT22;8552;48.120;-1.456;2023-09-19T02:50:51;12.60;99.90
16871;DHT22;8552;48.120;-1.456;2023-09-19T02:53:17;12.60;99.90
16871;DHT22;8552;48.120;-1.456;2023-09-19T02:55:44;12.50;99.90
16871;DHT22;8552;48.120;-1.456;2023-09-19T02:58:10;12.60;99.90
16871;DHT22;8552;48.120;-1.456;2023-09-19T03:00:39;12.60;99.90
16871;DHT22;8552;48.120;-1.456;2023-09-19T03:03:07;12.60;99.90
16871;DHT22;8552;48.120;-1.456;2023-09-19T03:05:34;12.60;99.90
16871;DHT22;8552;48.120;-1.456;2023-09-19T03:08:00;12.60;99.90
16871;DHT22;8552;48.120;-1.456;2023-09-19T03:10:27;12.50;99.90
16871;DHT22;8552;48.120;-1.456;2023-09-19T03:12:53;12.50;99.90
16871;DHT22;8552;48.120;-1.456;2023-09-19T03:15:19;12.50;99.90
16871;DHT22;8552;48.120;-1.456;2023-09-19T03:17:46;12.50;99.90
16871;DHT22;8552;48.120;-1.456;2023-09-19T03:20:13;12.50;99.90
16871;DHT22;8552;48.120;-1.456;2023-09-19T03:22:39;12.50;99.90
16871;DHT22;8552;48.120;-1.456;2023-09-19T03:25:06;12.50;99.90
16871;DHT22;8552;48.120;-1.456;2023-09-19T03:27:36;12.50;99.90
16871;DHT22;8552;48.120;-1.456;2023-09-19T03:30:03;12.50;99.90
16871;DHT22;8552;48.120;-1.456;2023-09-19T03:32:37;12.50;99.90
16871;DHT22;8552;48.120;-1.456;2023-09-19T03:35:04;12.50;99.90
16871;DHT22;8552;48.120;-1.456;2023-09-19T03:37:32;12.50;99.90
16871;DHT22;8552;48.120;-1.456;2023-09-19T03:40:00;12.50;99.90
16871;DHT22;8552;48.120;-1.456;2023-09-19T03:42:30;12.50;99.90
16871;DHT22;8552;48.120;-1.456;2023-09-19T03:44:56;12.50;99.90
16871;DHT22;8552;48.120;-1.456;2023-09-19T03:47:22;12.50;99.90
16871;DHT22;8552;48.120;-1.456;2023-09-19T03:49:48;12.50;99.90
16871;DHT22;8552;48.120;-1.456;2023-09-19T03:52:14;12.50;99.90
16871;DHT22;8552;48.120;-1.456;2023-09-19T03:54:41;12.40;99.90
16871;DHT22;8552;48.120;-1.456;2023-09-19T03:57:08;12.40;99.90
16871;DHT22;8552;48.120;-1.456;2023-09-19T03:59:33;12.40;99.90
16871;DHT22;8552;48.120;-1.456;2023-09-19T04:02:01;12.40;99.90
16871;DHT22;8552;48.120;-1.456;2023-09-19T04:04:27;12.40;99.90
16871;DHT22;8552;48.120;-1.456;2023-09-19T04:06:54;12.40;99.90
16871;DHT22;8552;48.120;-1.456;2023-09-19T04:09:20;12.40;99.90
16871;DHT22;8552;48.120;-1.456;2023-09-19T04:11:46;12.40;99.90
16871;DHT22;8552;48.120;-1.456;2023-09-19T04:14:11;12.40;99.90
16871;DHT22;8552;48.120;-1.456;2023-09-19T04:16:37;12.40;99.90
16871;DHT22;8552;48.120;-1.456;2023-09-19T04:19:04;12.30;99.90
16871;DHT22;8552;48.120;-1.456;2023-09-19T04:21:30;12.40;99.90
16871;DHT22;8552;48.120;-1.456;2023-09-19T04:23:56;12.40;99.90
16871;DHT22;8552;48.120;-1.456;2023-09-19T04:26:22;12.50;99.90
16871;DHT22;8552;48.120;-1.456;2023-09-19T04:28:47;12.50;99.90
16871;DHT22;8552;48.120;-1.456;2023-09-19T04:31:13;12.50;99.90
16871;DHT22;8552;48.120;-1.456;2023-09-19T04:33:40;12.60;99.90
16871;DHT22;8552;48.120;-1.456;2023-09-19T04:36:05;12.70;99.90
16871;DHT22;8552;48.120;-1.456;2023-09-19T04:38:33;12.70;99.90
16871;DHT22;8552;48.120;-1.456;2023-09-19T04:40:58;12.70;99.90
16871;DHT22;8552;48.120;-1.456;2023-09-19T04:43:25;12.70;99.90
16871;DHT22;8552;48.120;-1.456;2023-09-19T04:45:51;12.70;99.90
16871;DHT22;8552;48.120;-1.456;2023-09-19T04:48:23;12.70;99.90
16871;DHT22;8552;48.120;-1.456;2023-09-19T04:50:52;12.70;99.90
16871;DHT22;8552;48.120;-1.456;2023-09-19T04:53:18;12.70;99.90
16871;DHT22;8552;48.120;-1.456;2023-09-19T04:55:50;12.70;99.90
16871;DHT22;8552;48.120;-1.456;2023-09-19T04:58:16;12.70;99.90
16871;DHT22;8552;48.120;-1.456;2023-09-19T05:00:43;12.70;99.90
16871;DHT22;8552;48.120;-1.456;2023-09-19T05:03:08;12.80;99.90
16871;DHT22;8552;48.120;-1.456;2023-09-19T05:05:34;12.70;99.90
16871;DHT22;8552;48.120;-1.456;2023-09-19T05:08:00;12.80;99.90
16871;DHT22;8552;48.120;-1.456;2023-09-19T05:10:26;12.80;99.90
16871;DHT22;8552;48.120;-1.456;2023-09-19T05:12:55;12.80;99.90
16871;DHT22;8552;48.120;-1.456;2023-09-19T05:15:22;12.80;99.90
16871;DHT22;8552;48.120;-1.456;2023-09-19T05:17:52;12.80;99.90
16871;DHT22;8552;48.120;-1.456;2023-09-19T05:20:20;12.80;99.90
16871;DHT22;8552;48.120;-1.456;2023-09-19T05:23:03;12.70;99.90
16871;DHT22;8552;48.120;-1.456;2023-09-19T05:25:35;12.70;99.90
16871;DHT22;8552;48.120;-1.456;2023-09-19T05:28:08;12.70;99.90
16871;DHT22;8552;48.120;-1.456;2023-09-19T05:30:35;12.70;99.90
16871;DHT22;8552;48.120;-1.456;2023-09-19T05:33:09;12.70;99.90
16871;DHT22;8552;48.120;-1.456;2023-09-19T05:35:34;12.70;99.90
16871;DHT22;8552;48.120;-1.456;2023-09-19T05:38:05;12.70;99.90
16871;DHT22;8552;48.120;-1.456;2023-09-19T05:40:34;12.70;99.90
16871;DHT22;8552;48.120;-1.456;2023-09-19T05:43:01;12.70;99.90
16871;DHT22;8552;48.120;-1.456;2023-09-19T05:45:27;12.70;99.90
16871;DHT22;8552;48.120;-1.456;2023-09-19T05:47:53;12.70;99.90
16871;DHT22;8552;48.120;-1.456;2023-09-19T05:50:29;12.70;99.90
16871;DHT22;8552;48.120;-1.456;2023-09-19T05:52:55;12.60;99.90
16871;DHT22;8552;48.120;-1.456;2023-09-19T05:55:24;12.60;99.90
16871;DHT22;8552;48.120;-1.456;2023-09-19T05:57:51;12.60;99.90
16871;DHT22;8552;48.120;-1.456;2023-09-19T06:00:20;12.60;99.90
16871;DHT22;8552;48.120;-1.456;2023-09-19T06:02:55;12.60;99.90
16871;DHT22;8552;48.120;-1.456;2023-09-19T06:05:21;12.60;99.90
16871;DHT22;8552;48.120;-1.456;2023-09-19T06:07:47;12.60;99.90
16871;DHT22;8552;48.120;-1.456;2023-09-19T06:10:13;12.50;99.90
16871;DHT22;8552;48.120;-1.456;2023-09-19T06:12:41;12.60;99.90
16871;DHT22;8552;48.120;-1.456;2023-09-19T06:15:09;12.60;99.90
16871;DHT22;8552;48.120;-1.456;2023-09-19T06:17:46;12.60;99.90
16871;DHT22;8552;48.120;-1.456;2023-09-19T06:20:12;12.60;99.90
16871;DHT22;8552;48.120;-1.456;2023-09-19T06:22:41;12.60;99.90
16871;DHT22;8552;48.120;-1.456;2023-09-19T06:25:09;12.70;99.90
16871;DHT22;8552;48.120;-1.456;2023-09-19T06:27:40;12.70;99.90
16871;DHT22;8552;48.120;-1.456;2023-09-19T06:30:10;12.70;99.90
16871;DHT22;8552;48.120;-1.456;2023-09-19T06:32:40;12.70;99.90
16871;DHT22;8552;48.120;-1.456;2023-09-19T06:35:13;12.80;99.90
16871;DHT22;8552;48.120;-1.456;2023-09-19T06:37:40;12.80;99.90
16871;DHT22;8552;48.120;-1.456;2023-09-19T06:40:14;12.80;99.90
16871;DHT22;8552;48.120;-1.456;2023-09-19T06:42:53;12.80;99.90
16871;DHT22;8552;48.120;-1.456;2023-09-19T06:45:20;12.80;99.90
16871;DHT22;8552;48.120;-1.456;2023-09-19T06:47:51;12.90;99.90
16871;DHT22;8552;48.120;-1.456;2023-09-19T06:50:17;13.00;99.90
16871;DHT22;8552;48.120;-1.456;2023-09-19T06:52:46;12.90;99.90
16871;DHT22;8552;48.120;-1.456;2023-09-19T06:55:16;13.00;99.90
16871;DHT22;8552;48.120;-1.456;2023-09-19T06:57:43;13.00;99.90
16871;DHT22;8552;48.120;-1.456;2023-09-19T07:00:13;13.00;99.90
16871;DHT22;8552;48.120;-1.456;2023-09-19T07:03:01;13.10;99.90
16871;DHT22;8552;48.120;-1.456;2023-09-19T07:05:29;13.10;99.90
16871;DHT22;8552;48.120;-1.456;2023-09-19T07:07:57;13.20;99.90
16871;DHT22;8552;48.120;-1.456;2023-09-19T07:10:26;13.30;99.90
16871;DHT22;8552;48.120;-1.456;2023-09-19T07:12:58;13.30;99.90
16871;DHT22;8552;48.120;-1.456;2023-09-19T07:15:25;13.40;99.90
16871;DHT22;8552;48.120;-1.456;2023-09-19T07:17:55;13.50;99.90
16871;DHT22;8552;48.120;-1.456;2023-09-19T07:20:22;13.70;99.90
16871;DHT22;8552;48.120;-1.456;2023-09-19T07:22:49;13.70;99.90
16871;DHT22;8552;48.120;-1.456;2023-09-19T07:25:16;13.90;99.90
16871;DHT22;8552;48.120;-1.456;2023-09-19T07:27:42;14.00;99.90
16871;DHT22;8552;48.120;-1.456;2023-09-19T07:30:09;14.10;99.90
16871;DHT22;8552;48.120;-1.456;2023-09-19T07:32:35;14.20;99.90
16871;DHT22;8552;48.120;-1.456;2023-09-19T07:35:04;14.20;99.90
16871;DHT22;8552;48.120;-1.456;2023-09-19T07:37:33;14.40;99.90
16871;DHT22;8552;48.120;-1.456;2023-09-19T07:40:00;14.50;99.90
16871;DHT22;8552;48.120;-1.456;2023-09-19T07:42:51;14.60;99.90
16871;DHT22;8552;48.120;-1.456;2023-09-19T07:45:17;14.70;99.90
16871;DHT22;8552;48.120;-1.456;2023-09-19T07:47:46;14.70;99.90
16871;DHT22;8552;48.120;-1.456;2023-09-19T07:50:15;14.80;99.90
16871;DHT22;8552;48.120;-1.456;2023-09-19T07:52:44;14.80;99.90
16871;DHT22;8552;48.120;-1.456;2023-09-19T07:55:10;14.90;99.90
16871;DHT22;8552;48.120;-1.456;2023-09-19T07:57:42;15.00;99.90
16871;DHT22;8552;48.120;-1.456;2023-09-19T08:00:10;15.10;99.90
16871;DHT22;8552;48.120;-1.456;2023-09-19T08:02:36;15.20;99.90
16871;DHT22;8552;48.120;-1.456;2023-09-19T08:05:06;15.30;99.90
16871;DHT22;8552;48.120;-1.456;2023-09-19T08:07:36;15.50;99.90
16871;DHT22;8552;48.120;-1.456;2023-09-19T08:10:02;15.50;99.90
16871;DHT22;8552;48.120;-1.456;2023-09-19T08:12:29;15.60;99.90
16871;DHT22;8552;48.120;-1.456;2023-09-19T08:14:55;15.60;99.90
16871;DHT22;8552;48.120;-1.456;2023-09-19T08:17:21;15.70;99.90
16871;DHT22;8552;48.120;-1.456;2023-09-19T08:19:49;15.70;99.90
16871;DHT22;8552;48.120;-1.456;2023-09-19T08:22:19;15.70;99.90
16871;DHT22;8552;48.120;-1.456;2023-09-19T08:24:45;15.80;99.90
16871;DHT22;8552;48.120;-1.456;2023-09-19T08:27:11;15.90;99.90
16871;DHT22;8552;48.120;-1.456;2023-09-19T08:29:38;15.90;99.90
16871;DHT22;8552;48.120;-1.456;2023-09-19T08:32:04;16.00;99.90
16871;DHT22;8552;48.120;-1.456;2023-09-19T08:34:30;16.10;99.90
16871;DHT22;8552;48.120;-1.456;2023-09-19T08:36:59;16.20;99.90
16871;DHT22;8552;48.120;-1.456;2023-09-19T08:39:25;16.20;99.90
16871;DHT22;8552;48.120;-1.456;2023-09-19T08:41:58;16.20;99.90
16871;DHT22;8552;48.120;-1.456;2023-09-19T08:44:28;16.20;99.90
16871;DHT22;8552;48.120;-1.456;2023-09-19T08:47:16;16.30;99.90
16871;DHT22;8552;48.120;-1.456;2023-09-19T08:50:04;16.30;99.90
16871;DHT22;8552;48.120;-1.456;2023-09-19T08:52:43;16.50;99.90
16871;DHT22;8552;48.120;-1.456;2023-09-19T08:55:13;16.60;99.90
16871;DHT22;8552;48.120;-1.456;2023-09-19T08:57:46;16.70;99.90
16871;DHT22;8552;48.120;-1.456;2023-09-19T09:00:15;16.90;99.90
16871;DHT22;8552;48.120;-1.456;2023-09-19T09:02:44;17.10;99.90
16871;DHT22;8552;48.120;-1.456;2023-09-19T09:05:10;17.20;99.90
16871;DHT22;8552;48.120;-1.456;2023-09-19T09:07:37;17.20;99.90
16871;DHT22;8552;48.120;-1.456;2023-09-19T09:10:03;17.20;99.90
16871;DHT22;8552;48.120;-1.456;2023-09-19T09:12:30;17.20;99.90
16871;DHT22;8552;48.120;-1.456;2023-09-19T09:14:56;17.30;99.90
16871;DHT22;8552;48.120;-1.456;2023-09-19T09:17:23;17.50;99.90
16871;DHT22;8552;48.120;-1.456;2023-09-19T09:19:52;17.70;99.90
16871;DHT22;8552;48.120;-1.456;2023-09-19T09:22:18;17.80;99.90
16871;DHT22;8552;48.120;-1.456;2023-09-19T09:24:56;18.00;99.90
16871;DHT22;8552;48.120;-1.456;2023-09-19T09:27:29;18.20;99.90
16871;DHT22;8552;48.120;-1.456;2023-09-19T09:29:54;18.40;99.90
16871;DHT22;8552;48.120;-1.456;2023-09-19T09:32:21;18.70;99.90
16871;DHT22;8552;48.120;-1.456;2023-09-19T09:34:54;18.90;99.90
16871;DHT22;8552;48.120;-1.456;2023-09-19T09:37:21;19.10;99.90
16871;DHT22;8552;48.120;-1.456;2023-09-19T09:39:54;19.10;99.90
16871;DHT22;8552;48.120;-1.456;2023-09-19T09:42:35;19.20;99.90
16871;DHT22;8552;48.120;-1.456;2023-09-19T09:45:18;19.30;99.90
16871;DHT22;8552;48.120;-1.456;2023-09-19T09:48:03;19.30;99.90
16871;DHT22;8552;48.120;-1.456;2023-09-19T09:50:34;19.40;99.90
16871;DHT22;8552;48.120;-1.456;2023-09-19T09:53:25;19.50;99.90
16871;DHT22;8552;48.120;-1.456;2023-09-19T09:56:06;19.80;99.90
16871;DHT22;8552;48.120;-1.456;2023-09-19T09:58:33;20.00;99.90
16871;DHT22;8552;48.120;-1.456;2023-09-19T10:01:00;20.20;99.90
16871;DHT22;8552;48.120;-1.456;2023-09-19T10:03:39;20.20;99.90
16871;DHT22;8552;48.120;-1.456;2023-09-19T10:06:10;20.30;99.90
16871;DHT22;8552;48.120;-1.456;2023-09-19T10:09:08;20.20;99.90
16871;DHT22;8552;48.120;-1.456;2023-09-19T10:11:44;20.10;99.90
16871;DHT22;8552;48.120;-1.456;2023-09-19T10:14:15;20.50;99.90
16871;DHT22;8552;48.120;-1.456;2023-09-19T10:16:53;20.50;99.90
16871;DHT22;8552;48.120;-1.456;2023-09-19T10:19:30;20.70;99.90
16871;DHT22;8552;48.120;-1.456;2023-09-19T10:22:06;20.70;99.90
16871;DHT22;8552;48.120;-1.456;2023-09-19T10:24:35;20.80;99.90
16871;DHT22;8552;48.120;-1.456;2023-09-19T10:27:04;20.80;99.90
16871;DHT22;8552;48.120;-1.456;2023-09-19T10:29:35;20.90;99.90
16871;DHT22;8552;48.120;-1.456;2023-09-19T10:32:03;20.90;99.90
16871;DHT22;8552;48.120;-1.456;2023-09-19T10:34:35;20.90;99.90
16871;DHT22;8552;48.120;-1.456;2023-09-19T10:37:02;21.00;99.90
16871;DHT22;8552;48.120;-1.456;2023-09-19T10:39:32;21.20;99.90
16871;DHT22;8552;48.120;-1.456;2023-09-19T10:42:02;21.10;99.90
16871;DHT22;8552;48.120;-1.456;2023-09-19T10:44:32;21.20;99.90
16871;DHT22;8552;48.120;-1.456;2023-09-19T10:46:58;21.10;99.90
16871;DHT22;8552;48.120;-1.456;2023-09-19T10:49:24;21.00;99.90
16871;DHT22;8552;48.120;-1.456;2023-09-19T10:51:57;21.10;99.90
16871;DHT22;8552;48.120;-1.456;2023-09-19T10:54:29;21.20;99.90
16871;DHT22;8552;48.120;-1.456;2023-09-19T10:56:58;21.40;99.90
16871;DHT22;8552;48.120;-1.456;2023-09-19T10:59:25;21.90;99.90
16871;DHT22;8552;48.120;-1.456;2023-09-19T11:01:52;22.20;99.90
16871;DHT22;8552;48.120;-1.456;2023-09-19T11:04:31;22.50;99.90
16871;DHT22;8552;48.120;-1.456;2023-09-19T11:07:09;22.60;99.90
16871;DHT22;8552;48.120;-1.456;2023-09-19T11:09:56;22.30;99.90
16871;DHT22;8552;48.120;-1.456;2023-09-19T11:15:02;22.30;99.90
16871;DHT22;8552;48.120;-1.456;2023-09-19T11:17:37;22.30;99.90
16871;DHT22;8552;48.120;-1.456;2023-09-19T11:30:45;22.50;99.90
16871;DHT22;8552;48.120;-1.456;2023-09-19T11:33:30;22.60;99.90
16871;DHT22;8552;48.120;-1.456;2023-09-19T11:36:05;22.40;99.90
16871;DHT22;8552;48.120;-1.456;2023-09-19T11:47:04;22.70;99.60
16871;DHT22;8552;48.120;-1.456;2023-09-19T11:49:32;22.70;98.30
16871;DHT22;8552;48.120;-1.456;2023-09-19T11:52:00;22.80;98.00
16871;DHT22;8552;48.120;-1.456;2023-09-19T11:54:27;23.10;99.10
16871;DHT22;8552;48.120;-1.456;2023-09-19T11:56:58;23.20;98.10
16871;DHT22;8552;48.120;-1.456;2023-09-19T11:59:26;23.10;95.80
16871;DHT22;8552;48.120;-1.456;2023-09-19T12:01:56;23.10;96.10
16871;DHT22;8552;48.120;-1.456;2023-09-19T12:04:39;23.00;95.10
16871;DHT22;8552;48.120;-1.456;2023-09-19T12:07:10;23.30;95.70
16871;DHT22;8552;48.120;-1.456;2023-09-19T12:09:50;23.40;94.40
16871;DHT22;8552;48.120;-1.456;2023-09-19T12:12:20;23.30;95.00
16871;DHT22;8552;48.120;-1.456;2023-09-19T12:14:50;23.30;94.70
16871;DHT22;8552;48.120;-1.456;2023-09-19T12:17:16;23.10;94.20
16871;DHT22;8552;48.120;-1.456;2023-09-19T12:19:53;23.10;94.20
16871;DHT22;8552;48.120;-1.456;2023-09-19T12:22:19;23.20;95.40
16871;DHT22;8552;48.120;-1.456;2023-09-19T12:24:48;23.10;94.30
16871;DHT22;8552;48.120;-1.456;2023-09-19T12:27:16;23.20;95.10
16871;DHT22;8552;48.120;-1.456;2023-09-19T12:29:49;23.10;94.50
16871;DHT22;8552;48.120;-1.456;2023-09-19T12:32:15;23.00;94.00
16871;DHT22;8552;48.120;-1.456;2023-09-19T12:34:53;23.00;94.40
16871;DHT22;8552;48.120;-1.456;2023-09-19T12:37:20;23.00;93.90
16871;DHT22;8552;48.120;-1.456;2023-09-19T12:39:50;22.90;94.00
16871;DHT22;8552;48.120;-1.456;2023-09-19T12:42:22;22.60;94.00
16871;DHT22;8552;48.120;-1.456;2023-09-19T12:44:50;22.50;93.90
16871;DHT22;8552;48.120;-1.456;2023-09-19T12:47:21;22.50;95.10
16871;DHT22;8552;48.120;-1.456;2023-09-19T12:50:11;22.40;95.20
16871;DHT22;8552;48.120;-1.456;2023-09-19T12:52:47;22.50;95.20
16871;DHT22;8552;48.120;-1.456;2023-09-19T12:55:28;22.50;95.30
16871;DHT22;8552;48.120;-1.456;2023-09-19T12:58:11;22.40;95.20
16871;DHT22;8552;48.120;-1.456;2023-09-19T13:00:39;22.50;96.30
16871;DHT22;8552;48.120;-1.456;2023-09-19T13:05:56;22.60;96.00
16871;DHT22;8552;48.120;-1.456;2023-09-19T13:08:36;22.40;95.50
16871;DHT22;8552;48.120;-1.456;2023-09-19T13:11:11;22.40;96.50
16871;DHT22;8552;48.120;-1.456;2023-09-19T13:16:29;22.40;95.80
16871;DHT22;8552;48.120;-1.456;2023-09-19T13:18:55;22.40;95.00
16871;DHT22;8552;48.120;-1.456;2023-09-19T13:21:32;22.40;95.20
16871;DHT22;8552;48.120;-1.456;2023-09-19T13:24:22;22.40;96.10
16871;DHT22;8552;48.120;-1.456;2023-09-19T13:26:48;22.50;96.20
16871;DHT22;8552;48.120;-1.456;2023-09-19T13:29:15;22.40;96.20
16871;DHT22;8552;48.120;-1.456;2023-09-19T13:31:46;22.30;96.60
16871;DHT22;8552;48.120;-1.456;2023-09-19T13:34:12;22.40;96.60
16871;DHT22;8552;48.120;-1.456;2023-09-19T13:36:39;22.40;96.40
16871;DHT22;8552;48.120;-1.456;2023-09-19T13:39:05;22.40;96.60
16871;DHT22;8552;48.120;-1.456;2023-09-19T13:41:32;22.30;95.60
16871;DHT22;8552;48.120;-1.456;2023-09-19T13:43:58;22.20;95.80
16871;DHT22;8552;48.120;-1.456;2023-09-19T13:46:23;22.20;95.20
16871;DHT22;8552;48.120;-1.456;2023-09-19T13:48:52;22.10;96.10
16871;DHT22;8552;48.120;-1.456;2023-09-19T13:51:20;22.10;95.60
16871;DHT22;8552;48.120;-1.456;2023-09-19T13:53:49;22.10;95.40
16871;DHT22;8552;48.120;-1.456;2023-09-19T13:56:16;22.10;95.40
16871;DHT22;8552;48.120;-1.456;2023-09-19T13:58:41;22.20;95.80
16871;DHT22;8552;48.120;-1.456;2023-09-19T14:01:08;22.10;94.90
16871;DHT22;8552;48.120;-1.456;2023-09-19T14:03:41;22.10;95.10
16871;DHT22;8552;48.120;-1.456;2023-09-19T14:06:13;22.20;94.20
16871;DHT22;8552;48.120;-1.456;2023-09-19T14:08:38;22.10;93.80
16871;DHT22;8552;48.120;-1.456;2023-09-19T14:11:10;22.10;93.90
16871;DHT22;8552;48.120;-1.456;2023-09-19T14:13:36;22.10;94.10
16871;DHT22;8552;48.120;-1.456;2023-09-19T14:16:05;22.20;94.40
16871;DHT22;8552;48.120;-1.456;2023-09-19T14:18:31;22.40;94.20
16871;DHT22;8552;48.120;-1.456;2023-09-19T14:20:57;22.60;94.00
16871;DHT22;8552;48.120;-1.456;2023-09-19T14:23:23;22.70;93.80
16871;DHT22;8552;48.120;-1.456;2023-09-19T14:25:50;22.80;93.10
16871;DHT22;8552;48.120;-1.456;2023-09-19T14:28:16;22.80;93.10
16871;DHT22;8552;48.120;-1.456;2023-09-19T14:30:41;22.90;93.30
16871;DHT22;8552;48.120;-1.456;2023-09-19T14:33:07;22.90;93.50
16871;DHT22;8552;48.120;-1.456;2023-09-19T14:35:33;22.90;93.80
16871;DHT22;8552;48.120;-1.456;2023-09-19T14:37:58;22.80;93.70
16871;DHT22;8552;48.120;-1.456;2023-09-19T14:40:24;22.70;93.10
16871;DHT22;8552;48.120;-1.456;2023-09-19T14:42:51;22.90;93.80
16871;DHT22;8552;48.120;-1.456;2023-09-19T14:45:16;22.90;92.90
16871;DHT22;8552;48.120;-1.456;2023-09-19T14:47:45;23.10;94.20
16871;DHT22;8552;48.120;-1.456;2023-09-19T14:50:11;23.30;93.90
16871;DHT22;8552;48.120;-1.456;2023-09-19T14:52:37;23.30;93.70
16871;DHT22;8552;48.120;-1.456;2023-09-19T14:55:06;23.30;93.50
16871;DHT22;8552;48.120;-1.456;2023-09-19T14:57:32;23.30;94.30
16871;DHT22;8552;48.120;-1.456;2023-09-19T14:59:58;23.20;94.20
16871;DHT22;8552;48.120;-1.456;2023-09-19T15:02:24;23.00;93.80
16871;DHT22;8552;48.120;-1.456;2023-09-19T15:04:51;22.80;93.00
16871;DHT22;8552;48.120;-1.456;2023-09-19T15:07:17;22.70;93.80
16871;DHT22;8552;48.120;-1.456;2023-09-19T15:09:43;22.50;93.50
16871;DHT22;8552;48.120;-1.456;2023-09-19T15:12:09;22.40;93.80
16871;DHT22;8552;48.120;-1.456;2023-09-19T15:14:36;22.30;93.80
16871;DHT22;8552;48.120;-1.456;2023-09-19T15:17:02;22.20;93.50
16871;DHT22;8552;48.120;-1.456;2023-09-19T15:19:30;22.10;93.60
16871;DHT22;8552;48.120;-1.456;2023-09-19T15:21:56;22.00;93.40
16871;DHT22;8552;48.120;-1.456;2023-09-19T15:24:23;22.00;94.10
16871;DHT22;8552;48.120;-1.456;2023-09-19T15:26:48;21.90;94.00
16871;DHT22;8552;48.120;-1.456;2023-09-19T15:29:15;21.90;95.10
16871;DHT22;8552;48.120;-1.456;2023-09-19T15:31:41;22.00;95.40
16871;DHT22;8552;48.120;-1.456;2023-09-19T15:34:07;22.00;94.20
16871;DHT22;8552;48.120;-1.456;2023-09-19T15:36:33;22.10;94.90
16871;DHT22;8552;48.120;-1.456;2023-09-19T15:39:02;22.00;94.60
16871;DHT22;8552;48.120;-1.456;2023-09-19T15:41:35;22.10;94.80
16871;DHT22;8552;48.120;-1.456;2023-09-19T15:44:03;22.10;94.70
16871;DHT22;8552;48.120;-1.456;2023-09-19T15:46:33;22.10;95.30
16871;DHT22;8552;48.120;-1.456;2023-09-19T15:49:00;21.90;94.90
16871;DHT22;8552;48.120;-1.456;2023-09-19T15:51:26;21.90;95.30
16871;DHT22;8552;48.120;-1.456;2023-09-19T15:53:53;21.80;95.20
16871;DHT22;8552;48.120;-1.456;2023-09-19T15:56:20;21.70;94.90
16871;DHT22;8552;48.120;-1.456;2023-09-19T15:58:47;21.60;96.00
16871;DHT22;8552;48.120;-1.456;2023-09-19T16:01:14;21.50;95.40
16871;DHT22;8552;48.120;-1.456;2023-09-19T16:03:43;21.40;95.80
16871;DHT22;8552;48.120;-1.456;2023-09-19T16:06:11;21.40;96.00
16871;DHT22;8552;48.120;-1.456;2023-09-19T16:08:45;21.40;95.50
16871;DHT22;8552;48.120;-1.456;2023-09-19T16:11:11;21.20;95.80
16871;DHT22;8552;48.120;-1.456;2023-09-19T16:13:37;21.20;96.40
16871;DHT22;8552;48.120;-1.456;2023-09-19T16:16:04;21.20;96.50
16871;DHT22;8552;48.120;-1.456;2023-09-19T16:18:30;21.20;96.40
16871;DHT22;8552;48.120;-1.456;2023-09-19T16:21:02;21.10;96.40
16871;DHT22;8552;48.120;-1.456;2023-09-19T16:23:28;21.10;96.40
16871;DHT22;8552;48.120;-1.456;2023-09-19T16:26:01;21.10;96.50